sensor_id;sensor_type;location;lat;lon;timestamp;temperature;humidity
56123;DHT22;42426;46.104;19.656;2024-03-23T00:58:42;256.80;2252.80
56123;DHT22;42426;46.104;19.656;2024-03-23T01:01:07;256.70;2252.80
56123;DHT22;42426;46.104;19.656;2024-03-23T01:03:33;256.70;2252.80
56123;DHT22;42426;46.104;19.656;2024-03-23T01:06:00;256.70;2252.80
56123;DHT22;42426;46.104;19.656;2024-03-23T01:08:27;256.70;2252.80
56123;DHT22;42426;46.104;19.656;2024-03-23T01:10:56;256.60;2252.80
56123;DHT22;42426;46.104;19.656;2024-03-23T01:13:22;256.60;2252.80
56123;DHT22;42426;46.104;19.656;2024-03-23T01:15:52;256.60;2252.80
56123;DHT22;42426;46.104;19.656;2024-03-23T01:18:20;256.60;2252.80
56123;DHT22;42426;46.104;19.656;2024-03-23T01:20:46;256.60;2252.80
56123;DHT22;42426;46.104;19.656;2024-03-23T01:23:14;256.60;2252.80
56123;DHT22;42426;46.104;19.656;2024-03-23T01:25:40;256.60;2252.80
56123;DHT22;42426;46.104;19.656;2024-03-23T01:28:06;256.60;2252.80
56123;DHT22;42426;46.104;19.656;2024-03-23T01:30:33;256.60;2252.80
56123;DHT22;42426;46.104;19.656;2024-03-23T01:32:59;256.60;2252.80
56123;DHT22;42426;46.104;19.656;2024-03-23T01:35:25;256.60;2252.80
56123;DHT22;42426;46.104;19.656;2024-03-23T01:37:52;256.60;2252.80
56123;DHT22;42426;46.104;19.656;2024-03-23T01:40:18;256.50;2252.80
56123;DHT22;42426;46.104;19.656;2024-03-23T01:42:58;256.50;2252.80
56123;DHT22;42426;46.104;19.656;2024-03-23T01:45:24;256.50;2252.80
56123;DHT22;42426;46.104;19.656;2024-03-23T01:47:53;256.50;2252.80
56123;DHT22;42426;46.104;19.656;2024-03-23T01:50:19;256.50;2252.80
56123;DHT22;42426;46.104;19.656;2024-03-23T01:52:46;256.50;2252.80
56123;DHT22;42426;46.104;19.656;2024-03-23T01:55:12;256.40;2252.80
56123;DHT22;42426;46.104;19.656;2024-03-23T01:57:38;256.50;2252.80
56123;DHT22;42426;46.104;19.656;2024-03-23T02:00:04;256.50;2252.80
56123;DHT22;42426;46.104;19.656;2024-03-23T02:02:31;256.40;2252.80
56123;DHT22;42426;46.104;19.656;2024-03-23T02:04:58;256.40;2252.80
56123;DHT22;42426;46.104;19.656;2024-03-23T02:07:24;256.40;2252.80
56123;DHT22;42426;46.104;19.656;2024-03-23T02:09:51;256.40;2252.80
56123;DHT22;42426;46.104;19.656;2024-03-23T02:12:18;256.30;2252.80
56123;DHT22;42426;46.104;19.656;2024-03-23T02:14:44;256.30;2252.80
56123;DHT22;42426;46.104;19.656;2024-03-23T02:17:09;256.30;2252.80
56123;DHT22;42426;46.104;19.656;2024-03-23T02:19:35;256.40;2252.80
56123;DHT22;42426;46.104;19.656;2024-03-23T02:22:01;256.40;2252.80
56123;DHT22;42426;46.104;19.656;2024-03-23T02:24:29;256.30;2252.80
56123;DHT22;42426;46.104;19.656;2024-03-23T02:26:55;256.30;2252.80
56123;DHT22;42426;46.104;19.656;2024-03-23T02:29:22;256.30;2252.80
56123;DHT22;42426;46.104;19.656;2024-03-23T02:31:48;256.30;2252.80
56123;DHT22;42426;46.104;19.656;2024-03-23T02:34:14;256.20;2252.80
56123;DHT22;42426;46.104;19.656;2024-03-23T02:36:40;256.30;2252.80
56123;DHT22;42426;46.104;19.656;2024-03-23T02:39:05;256.20;2252.80
56123;DHT22;42426;46.104;19.656;2024-03-23T02:41:32;256.20;2252.80
56123;DHT22;42426;46.104;19.656;2024-03-23T02:43:57;256.20;2252.80
56123;DHT22;42426;46.104;19.656;2024-03-23T02:46:23;256.20;2252.80
56123;DHT22;42426;46.104;19.656;2024-03-23T02:48:49;256.30;2252.80
56123;DHT22;42426;46.104;19.656;2024-03-23T02:51:14;256.30;2252.80
56123;DHT22;42426;46.104;19.656;2024-03-23T02:53:41;256.20;2252.80
56123;DHT22;42426;46.104;19.656;2024-03-23T02:56:06;256.20;2252.80
56123;DHT22;42426;46.104;19.656;2024-03-23T02:58:32;256.10;2252.80
56123;DHT22;42426;46.104;19.656;2024-03-23T03:00:58;256.10;2252.80
56123;DHT22;42426;46.104;19.656;2024-03-23T03:03:24;256.00;2252.80
56123;DHT22;42426;46.104;19.656;2024-03-23T03:05:59;256.10;2252.80
56123;DHT22;42426;46.104;19.656;2024-03-23T03:08:25;256.10;2252.80
56123;DHT22;42426;46.104;19.656;2024-03-23T03:10:52;256.10;2252.80
56123;DHT22;42426;46.104;19.656;2024-03-23T03:13:18;231.30;2252.80
56123;DHT22;42426;46.104;19.656;2024-03-23T03:15:46;231.30;2252.80
56123;DHT22;42426;46.104;19.656;2024-03-23T03:18:12;256.00;2252.80
56123;DHT22;42426;46.104;19.656;2024-03-23T03:20:39;231.30;2252.80
56123;DHT22;42426;46.104;19.656;2024-03-23T03:23:06;231.30;2252.80
56123;DHT22;42426;46.104;19.656;2024-03-23T03:25:31;231.30;2252.80
56123;DHT22;42426;46.104;19.656;2024-03-23T03:27:57;231.30;2252.80
56123;DHT22;42426;46.104;19.656;2024-03-23T03:30:23;231.20;2252.80
56123;DHT22;42426;46.104;19.656;2024-03-23T03:32:49;231.20;2252.80
56123;DHT22;42426;46.104;19.656;2024-03-23T03:35:15;231.20;2252.80
56123;DHT22;42426;46.104;19.656;2024-03-23T03:37:41;231.20;2252.80
56123;DHT22;42426;46.104;19.656;2024-03-23T03:40:07;231.10;2252.80
56123;DHT22;42426;46.104;19.656;2024-03-23T03:42:34;231.00;2252.80
56123;DHT22;42426;46.104;19.656;2024-03-23T03:45:01;231.00;2252.80
56123;DHT22;42426;46.104;19.656;2024-03-23T03:47:27;231.00;2252.80
56123;DHT22;42426;46.104;19.656;2024-03-23T04:19:13;231.30;2252.80
56123;DHT22;42426;46.104;19.656;2024-03-23T04:21:40;231.10;2252.80
56123;DHT22;42426;46.104;19.656;2024-03-23T04:24:06;231.10;2252.80
56123;DHT22;42426;46.104;19.656;2024-03-23T04:26:41;231.00;2252.80
56123;DHT22;42426;46.104;19.656;2024-03-23T04:29:07;231.00;2252.80
56123;DHT22;42426;46.104;19.656;2024-03-23T04:31:33;230.80;2252.80
56123;DHT22;42426;46.104;19.656;2024-03-23T04:34:01;230.80;2252.80
56123;DHT22;42426;46.104;19.656;2024-03-23T04:36:27;230.80;2252.80
56123;DHT22;42426;46.104;19.656;2024-03-23T04:38:52;230.80;2252.80
56123;DHT22;42426;46.104;19.656;2024-03-23T04:41:18;230.80;2252.80
56123;DHT22;42426;46.104;19.656;2024-03-23T04:43:44;230.80;2252.80
56123;DHT22;42426;46.104;19.656;2024-03-23T04:46:10;230.70;2252.80
56123;DHT22;42426;46.104;19.656;2024-03-23T04:48:35;230.80;2252.80
56123;DHT22;42426;46.104;19.656;2024-03-23T04:51:02;230.70;2252.80
56123;DHT22;42426;46.104;19.656;2024-03-23T04:53:27;230.70;2252.80
56123;DHT22;42426;46.104;19.656;2024-03-23T04:55:55;230.70;2252.80
56123;DHT22;42426;46.104;19.656;2024-03-23T04:58:22;230.70;2252.80
56123;DHT22;42426;46.104;19.656;2024-03-23T05:00:48;230.80;2252.80
56123;DHT22;42426;46.104;19.656;2024-03-23T05:03:14;230.70;2252.80
56123;DHT22;42426;46.104;19.656;2024-03-23T05:05:40;230.80;2252.80
56123;DHT22;42426;46.104;19.656;2024-03-23T05:08:06;230.80;2252.80
56123;DHT22;42426;46.104;19.656;2024-03-23T05:10:32;230.70;2252.80
56123;DHT22;42426;46.104;19.656;2024-03-23T05:12:58;230.80;2252.80
56123;DHT22;42426;46.104;19.656;2024-03-23T05:15:23;230.70;2252.80
56123;DHT22;42426;46.104;19.656;2024-03-23T05:17:50;230.80;2252.80
56123;DHT22;42426;46.104;19.656;2024-03-23T05:20:16;230.80;2252.80
56123;DHT22;42426;46.104;19.656;2024-03-23T05:22:41;230.80;2252.80
56123;DHT22;42426;46.104;19.656;2024-03-23T05:25:07;230.80;2252.80
56123;DHT22;42426;46.104;19.656;2024-03-23T05:27:35;230.80;2252.80
56123;DHT22;42426;46.104;19.656;2024-03-23T05:30:01;230.80;2252.80
56123;DHT22;42426;46.104;19.656;2024-03-23T05:32:29;230.80;2252.80
56123;DHT22;42426;46.104;19.656;2024-03-23T05:34:55;230.80;2252.80
56123;DHT22;42426;46.104;19.656;2024-03-23T05:37:24;230.80;2252.80
56123;DHT22;42426;46.104;19.656;2024-03-23T05:39:51;230.80;2252.80
56123;DHT22;42426;46.104;19.656;2024-03-23T05:42:17;230.80;2252.80
56123;DHT22;42426;46.104;19.656;2024-03-23T05:44:46;230.90;2252.80
56123;DHT22;42426;46.104;19.656;2024-03-23T05:47:13;230.90;2252.80
56123;DHT22;42426;46.104;19.656;2024-03-23T05:49:40;230.90;2252.80
56123;DHT22;42426;46.104;19.656;2024-03-23T05:52:09;231.00;2252.80
56123;DHT22;42426;46.104;19.656;2024-03-23T05:54:38;231.00;2252.80
56123;DHT22;42426;46.104;19.656;2024-03-23T05:57:04;231.00;2252.80
56123;DHT22;42426;46.104;19.656;2024-03-23T05:59:33;231.00;2252.80
56123;DHT22;42426;46.104;19.656;2024-03-23T06:01:58;231.10;2252.80
56123;DHT22;42426;46.104;19.656;2024-03-23T06:04:24;231.00;2252.80
56123;DHT22;42426;46.104;19.656;2024-03-23T06:06:51;231.10;2252.80
56123;DHT22;42426;46.104;19.656;2024-03-23T06:09:20;231.20;2252.80
56123;DHT22;42426;46.104;19.656;2024-03-23T06:11:46;231.30;2252.80
56123;DHT22;42426;46.104;19.656;2024-03-23T06:14:12;231.30;2252.80
56123;DHT22;42426;46.104;19.656;2024-03-23T06:16:37;256.00;2252.80
56123;DHT22;42426;46.104;19.656;2024-03-23T06:19:03;256.20;2252.80
56123;DHT22;42426;46.104;19.656;2024-03-23T06:21:32;256.40;2252.80
56123;DHT22;42426;46.104;19.656;2024-03-23T06:23:58;256.40;2252.80
56123;DHT22;42426;46.104;19.656;2024-03-23T06:26:24;256.50;2252.80
56123;DHT22;42426;46.104;19.656;2024-03-23T06:28:49;256.50;2252.80
56123;DHT22;42426;46.104;19.656;2024-03-23T06:31:16;256.50;2252.80
56123;DHT22;42426;46.104;19.656;2024-03-23T06:33:42;256.60;2252.80
56123;DHT22;42426;46.104;19.656;2024-03-23T07:00:45;307.20;2304.00
56123;DHT22;42426;46.104;19.656;2024-03-23T07:03:11;282.40;2278.40
56123;DHT22;42426;46.104;19.656;2024-03-23T07:05:37;282.50;2278.40
56123;DHT22;42426;46.104;19.656;2024-03-23T07:08:03;282.50;2278.40
56123;DHT22;42426;46.104;19.656;2024-03-23T07:10:29;282.50;2278.40
56123;DHT22;42426;46.104;19.656;2024-03-23T07:12:56;307.20;2304.00
56123;DHT22;42426;46.104;19.656;2024-03-23T07:15:22;307.50;2304.00
56123;DHT22;42426;46.104;19.656;2024-03-23T07:17:48;307.50;2304.00
56123;DHT22;42426;46.104;19.656;2024-03-23T07:20:14;307.50;2304.00
56123;DHT22;42426;46.104;19.656;2024-03-23T07:22:41;307.70;2304.00
56123;DHT22;42426;46.104;19.656;2024-03-23T07:25:07;307.70;2304.00
56123;DHT22;42426;46.104;19.656;2024-03-23T07:27:33;307.90;2304.00
56123;DHT22;42426;46.104;19.656;2024-03-23T07:29:59;308.00;2304.00
56123;DHT22;42426;46.104;19.656;2024-03-23T07:32:26;308.10;2304.00
56123;DHT22;42426;46.104;19.656;2024-03-23T07:34:52;308.10;2304.00
56123;DHT22;42426;46.104;19.656;2024-03-23T08:31:10;384.30;2252.80
56123;DHT22;42426;46.104;19.656;2024-03-23T08:33:36;384.10;2304.00
56123;DHT22;42426;46.104;19.656;2024-03-23T08:36:08;384.10;2278.40
56123;DHT22;42426;46.104;19.656;2024-03-23T08:46:09;384.80;2278.40
56123;DHT22;42426;46.104;19.656;2024-03-23T08:48:37;384.70;2278.40
56123;DHT22;42426;46.104;19.656;2024-03-23T08:51:05;384.90;2278.40
56123;DHT22;42426;46.104;19.656;2024-03-23T08:53:31;409.60;2304.00
56123;DHT22;42426;46.104;19.656;2024-03-23T08:55:58;384.80;2278.40
56123;DHT22;42426;46.104;19.656;2024-03-23T08:58:25;384.90;2227.20
56123;DHT22;42426;46.104;19.656;2024-03-23T09:00:52;409.80;2355.20
56123;DHT22;42426;46.104;19.656;2024-03-23T09:03:19;410.20;2150.40
56123;DHT22;42426;46.104;19.656;2024-03-23T09:05:45;410.10;2355.20
56123;DHT22;42426;46.104;19.656;2024-03-23T09:08:13;410.30;2150.40
56123;DHT22;42426;46.104;19.656;2024-03-23T09:10:39;410.00;2150.40
56123;DHT22;42426;46.104;19.656;2024-03-23T09:13:05;410.00;2150.40
56123;DHT22;42426;46.104;19.656;2024-03-23T09:15:34;410.10;2150.40
56123;DHT22;42426;46.104;19.656;2024-03-23T09:18:00;410.40;2124.80
56123;DHT22;42426;46.104;19.656;2024-03-23T09:20:26;435.20;2099.20
56123;DHT22;42426;46.104;19.656;2024-03-23T09:30:13;435.60;2124.80
56123;DHT22;42426;46.104;19.656;2024-03-23T09:32:40;435.40;2048.00
56123;DHT22;42426;46.104;19.656;2024-03-23T09:35:06;435.50;2048.00
56123;DHT22;42426;46.104;19.656;2024-03-23T09:37:32;435.50;2022.40
56123;DHT22;42426;46.104;19.656;2024-03-23T09:39:58;435.60;2022.40
56123;DHT22;42426;46.104;19.656;2024-03-23T09:42:23;435.60;2022.40
56123;DHT22;42426;46.104;19.656;2024-03-23T09:44:51;435.60;2022.40
56123;DHT22;42426;46.104;19.656;2024-03-23T09:47:20;435.60;1996.80
56123;DHT22;42426;46.104;19.656;2024-03-23T09:49:46;435.70;1996.80
56123;DHT22;42426;46.104;19.656;2024-03-23T09:52:12;435.70;1971.20
56123;DHT22;42426;46.104;19.656;2024-03-23T09:54:38;435.70;1945.60
56123;DHT22;42426;46.104;19.656;2024-03-23T09:57:05;435.90;1945.60
56123;DHT22;42426;46.104;19.656;2024-03-23T09:59:33;435.80;1945.60
56123;DHT22;42426;46.104;19.656;2024-03-23T10:02:00;435.90;1920.00
56123;DHT22;42426;46.104;19.656;2024-03-23T10:04:39;436.00;1920.00
56123;DHT22;42426;46.104;19.656;2024-03-23T10:12:12;461.00;1894.40
56123;DHT22;42426;46.104;19.656;2024-03-23T10:17:21;461.10;1894.40
56123;DHT22;42426;46.104;19.656;2024-03-23T10:19:51;461.10;1868.80
56123;DHT22;42426;46.104;19.656;2024-03-23T10:22:21;461.10;1894.40
56123;DHT22;42426;46.104;19.656;2024-03-23T10:24:48;461.20;1894.40
56123;DHT22;42426;46.104;19.656;2024-03-23T10:27:18;461.30;1843.20
56123;DHT22;42426;46.104;19.656;2024-03-23T10:29:46;461.30;1817.60
56123;DHT22;42426;46.104;19.656;2024-03-23T10:32:13;461.30;1843.20
56123;DHT22;42426;46.104;19.656;2024-03-23T10:34:39;461.20;1843.20
56123;DHT22;42426;46.104;19.656;2024-03-23T10:37:07;461.30;1817.60
56123;DHT22;42426;46.104;19.656;2024-03-23T10:39:33;461.40;1766.40
56123;DHT22;42426;46.104;19.656;2024-03-23T10:42:04;461.40;1766.40
56123;DHT22;42426;46.104;19.656;2024-03-23T10:44:31;461.40;1766.40
56123;DHT22;42426;46.104;19.656;2024-03-23T10:46:58;461.50;1766.40
56123;DHT22;42426;46.104;19.656;2024-03-23T10:49:33;461.50;1740.80
56123;DHT22;42426;46.104;19.656;2024-03-23T10:52:04;461.50;1740.80
56123;DHT22;42426;46.104;19.656;2024-03-23T10:54:30;461.60;1740.80
56123;DHT22;42426;46.104;19.656;2024-03-23T10:57:03;461.70;1740.80
56123;DHT22;42426;46.104;19.656;2024-03-23T11:01:57;486.50;1664.00
56123;DHT22;42426;46.104;19.656;2024-03-23T11:04:33;486.40;1689.60
56123;DHT22;42426;46.104;19.656;2024-03-23T11:06:59;486.40;1689.60
56123;DHT22;42426;46.104;19.656;2024-03-23T12:09:47;512.90;1484.80
56123;DHT22;42426;46.104;19.656;2024-03-23T12:12:17;512.60;1510.40
56123;DHT22;42426;46.104;19.656;2024-03-23T12:15:03;512.60;1484.80
56123;DHT22;42426;46.104;19.656;2024-03-23T12:17:29;512.50;1484.80
56123;DHT22;42426;46.104;19.656;2024-03-23T12:19:55;512.70;1484.80
56123;DHT22;42426;46.104;19.656;2024-03-23T12:22:21;512.70;1510.40
56123;DHT22;42426;46.104;19.656;2024-03-23T12:24:48;512.70;1484.80
56123;DHT22;42426;46.104;19.656;2024-03-23T12:27:14;512.60;1484.80
56123;DHT22;42426;46.104;19.656;2024-03-23T12:29:43;512.70;1484.80
56123;DHT22;42426;46.104;19.656;2024-03-23T12:32:11;512.70;1484.80
56123;DHT22;42426;46.104;19.656;2024-03-23T12:34:37;512.80;1459.20
56123;DHT22;42426;46.104;19.656;2024-03-23T12:37:03;512.80;1459.20
56123;DHT22;42426;46.104;19.656;2024-03-23T12:39:29;512.80;1484.80
56123;DHT22;42426;46.104;19.656;2024-03-23T12:41:55;512.80;1459.20
56123;DHT22;42426;46.104;19.656;2024-03-23T12:44:23;512.80;1459.20
56123;DHT22;42426;46.104;19.656;2024-03-23T12:46:49;537.60;1484.80
56123;DHT22;42426;46.104;19.656;2024-03-23T12:49:16;512.90;1459.20
56123;DHT22;42426;46.104;19.656;2024-03-23T13:01:27;538.20;1433.60
56123;DHT22;42426;46.104;19.656;2024-03-23T13:03:53;538.20;1433.60
56123;DHT22;42426;46.104;19.656;2024-03-23T13:06:19;538.20;1433.60
56123;DHT22;42426;46.104;19.656;2024-03-23T13:08:46;538.40;1433.60
56123;DHT22;42426;46.104;19.656;2024-03-23T13:11:13;538.40;1433.60
56123;DHT22;42426;46.104;19.656;2024-03-23T13:18:34;563.50;1382.40
56123;DHT22;42426;46.104;19.656;2024-03-23T13:21:00;563.50;1382.40
56123;DHT22;42426;46.104;19.656;2024-03-23T13:23:26;563.30;1382.40
56123;DHT22;42426;46.104;19.656;2024-03-23T13:25:53;563.20;1408.00
56123;DHT22;42426;46.104;19.656;2024-03-23T13:28:22;563.20;1356.80
56123;DHT22;42426;46.104;19.656;2024-03-23T13:33:17;563.30;1408.00
56123;DHT22;42426;46.104;19.656;2024-03-23T13:35:53;563.40;1382.40
56123;DHT22;42426;46.104;19.656;2024-03-23T13:38:20;563.20;1408.00
56123;DHT22;42426;46.104;19.656;2024-03-23T13:40:56;563.20;1408.00
56123;DHT22;42426;46.104;19.656;2024-03-23T13:43:23;538.40;1382.40
56123;DHT22;42426;46.104;19.656;2024-03-23T13:45:52;538.50;1356.80
56123;DHT22;42426;46.104;19.656;2024-03-23T13:48:26;538.40;1356.80
56123;DHT22;42426;46.104;19.656;2024-03-23T13:53:24;538.50;1356.80
56123;DHT22;42426;46.104;19.656;2024-03-23T13:55:50;538.40;1356.80
56123;DHT22;42426;46.104;19.656;2024-03-23T13:58:16;538.40;1356.80
56123;DHT22;42426;46.104;19.656;2024-03-23T14:00:42;538.40;1331.20
56123;DHT22;42426;46.104;19.656;2024-03-23T14:03:11;538.40;1356.80
56123;DHT22;42426;46.104;19.656;2024-03-23T14:05:37;538.40;1356.80
56123;DHT22;42426;46.104;19.656;2024-03-23T14:08:12;538.30;1356.80
56123;DHT22;42426;46.104;19.656;2024-03-23T14:10:42;538.20;1356.80
56123;DHT22;42426;46.104;19.656;2024-03-23T14:13:07;538.00;1356.80
56123;DHT22;42426;46.104;19.656;2024-03-23T14:15:33;538.00;1356.80
56123;DHT22;42426;46.104;19.656;2024-03-23T14:17:59;538.00;1408.00
56123;DHT22;42426;46.104;19.656;2024-03-23T14:20:25;538.00;1408.00
56123;DHT22;42426;46.104;19.656;2024-03-23T14:22:51;537.90;1433.60
56123;DHT22;42426;46.104;19.656;2024-03-23T14:25:17;537.90;1408.00
56123;DHT22;42426;46.104;19.656;2024-03-23T14:27:45;537.90;1408.00
56123;DHT22;42426;46.104;19.656;2024-03-23T14:30:12;537.90;1408.00
56123;DHT22;42426;46.104;19.656;2024-03-23T14:32:38;537.90;1408.00
56123;DHT22;42426;46.104;19.656;2024-03-23T14:35:04;537.90;1408.00
56123;DHT22;42426;46.104;19.656;2024-03-23T14:37:31;537.70;1433.60
56123;DHT22;42426;46.104;19.656;2024-03-23T14:39:57;537.70;1433.60
56123;DHT22;42426;46.104;19.656;2024-03-23T14:42:23;537.60;1408.00
56123;DHT22;42426;46.104;19.656;2024-03-23T14:44:50;512.90;1408.00
56123;DHT22;42426;46.104;19.656;2024-03-23T14:47:17;537.60;1433.60
56123;DHT22;42426;46.104;19.656;2024-03-23T14:49:43;537.60;1433.60
56123;DHT22;42426;46.104;19.656;2024-03-23T14:52:19;537.60;1459.20
56123;DHT22;42426;46.104;19.656;2024-03-23T14:54:46;537.60;1433.60
56123;DHT22;42426;46.104;19.656;2024-03-23T14:57:12;537.60;1433.60
56123;DHT22;42426;46.104;19.656;2024-03-23T14:59:38;537.60;1433.60
56123;DHT22;42426;46.104;19.656;2024-03-23T15:02:04;512.90;1408.00
56123;DHT22;42426;46.104;19.656;2024-03-23T15:04:30;512.90;1433.60
56123;DHT22;42426;46.104;19.656;2024-03-23T15:06:56;512.90;1408.00
56123;DHT22;42426;46.104;19.656;2024-03-23T15:09:22;512.90;1433.60
56123;DHT22;42426;46.104;19.656;2024-03-23T15:11:47;512.80;1433.60
56123;DHT22;42426;46.104;19.656;2024-03-23T15:14:13;512.80;1459.20
56123;DHT22;42426;46.104;19.656;2024-03-23T15:16:39;512.80;1459.20
56123;DHT22;42426;46.104;19.656;2024-03-23T15:19:04;512.80;1459.20
56123;DHT22;42426;46.104;19.656;2024-03-23T15:21:33;512.80;1484.80
56123;DHT22;42426;46.104;19.656;2024-03-23T15:23:59;512.70;1484.80
56123;DHT22;42426;46.104;19.656;2024-03-23T15:26:25;512.70;1484.80
56123;DHT22;42426;46.104;19.656;2024-03-23T15:28:51;512.60;1484.80
56123;DHT22;42426;46.104;19.656;2024-03-23T15:31:23;512.60;1510.40
56123;DHT22;42426;46.104;19.656;2024-03-23T15:33:49;512.60;1510.40
56123;DHT22;42426;46.104;19.656;2024-03-23T15:36:15;512.60;1510.40
56123;DHT22;42426;46.104;19.656;2024-03-23T15:38:41;512.60;1510.40
56123;DHT22;42426;46.104;19.656;2024-03-23T15:41:08;512.50;1536.00
56123;DHT22;42426;46.104;19.656;2024-03-23T15:43:34;512.50;1536.00
56123;DHT22;42426;46.104;19.656;2024-03-23T15:46:01;512.50;1536.00
56123;DHT22;42426;46.104;19.656;2024-03-23T15:48:28;512.50;1536.00
56123;DHT22;42426;46.104;19.656;2024-03-23T15:50:55;512.40;1536.00
56123;DHT22;42426;46.104;19.656;2024-03-23T16:00:57;512.70;1536.00
56123;DHT22;42426;46.104;19.656;2024-03-23T16:03:23;512.30;1510.40
56123;DHT22;42426;46.104;19.656;2024-03-23T16:05:56;512.20;1510.40
56123;DHT22;42426;46.104;19.656;2024-03-23T16:08:23;512.20;1510.40
56123;DHT22;42426;46.104;19.656;2024-03-23T16:10:49;512.20;1510.40
56123;DHT22;42426;46.104;19.656;2024-03-23T16:13:15;512.10;1536.00
56123;DHT22;42426;46.104;19.656;2024-03-23T16:15:41;512.00;1536.00
56123;DHT22;42426;46.104;19.656;2024-03-23T16:18:06;512.00;1536.00
56123;DHT22;42426;46.104;19.656;2024-03-23T16:20:32;512.10;1536.00
56123;DHT22;42426;46.104;19.656;2024-03-23T16:23:02;512.00;1536.00
56123;DHT22;42426;46.104;19.656;2024-03-23T16:25:28;487.30;1536.00
56123;DHT22;42426;46.104;19.656;2024-03-23T16:27:54;487.30;1536.00
56123;DHT22;42426;46.104;19.656;2024-03-23T16:30:20;487.20;1536.00
56123;DHT22;42426;46.104;19.656;2024-03-23T16:32:47;487.20;1536.00
56123;DHT22;42426;46.104;19.656;2024-03-23T16:35:13;487.20;1561.60
56123;DHT22;42426;46.104;19.656;2024-03-23T16:37:41;487.10;1536.00
56123;DHT22;42426;46.104;19.656;2024-03-23T16:40:07;487.10;1561.60
56123;DHT22;42426;46.104;19.656;2024-03-23T16:42:35;487.00;1561.60
56123;DHT22;42426;46.104;19.656;2024-03-23T16:45:01;487.10;1561.60
56123;DHT22;42426;46.104;19.656;2024-03-23T16:47:28;487.10;1561.60
56123;DHT22;42426;46.104;19.656;2024-03-23T16:49:53;487.10;1561.60
56123;DHT22;42426;46.104;19.656;2024-03-23T16:52:19;486.80;1561.60
56123;DHT22;42426;46.104;19.656;2024-03-23T16:54:45;486.70;1587.20
56123;DHT22;42426;46.104;19.656;2024-03-23T16:57:11;486.70;1587.20
56123;DHT22;42426;46.104;19.656;2024-03-23T16:59:36;486.60;1612.80
56123;DHT22;42426;46.104;19.656;2024-03-23T17:02:02;486.60;1612.80
56123;DHT22;42426;46.104;19.656;2024-03-23T17:04:28;486.50;1638.40
56123;DHT22;42426;46.104;19.656;2024-03-23T17:06:54;486.50;1689.60
56123;DHT22;42426;46.104;19.656;2024-03-23T17:09:20;486.50;1920.00
56123;DHT22;42426;46.104;19.656;2024-03-23T17:11:45;486.40;1715.20
56123;DHT22;42426;46.104;19.656;2024-03-23T17:14:12;486.50;1689.60
56123;DHT22;42426;46.104;19.656;2024-03-23T17:31:20;486.40;1638.40
56123;DHT22;42426;46.104;19.656;2024-03-23T17:33:50;461.60;1664.00
56123;DHT22;42426;46.104;19.656;2024-03-23T17:36:17;461.50;1689.60
56123;DHT22;42426;46.104;19.656;2024-03-23T17:38:48;461.50;1715.20
56123;DHT22;42426;46.104;19.656;2024-03-23T17:41:14;461.40;1740.80
56123;DHT22;42426;46.104;19.656;2024-03-23T17:43:39;461.30;1689.60
56123;DHT22;42426;46.104;19.656;2024-03-23T17:46:05;461.40;1715.20
56123;DHT22;42426;46.104;19.656;2024-03-23T17:48:32;461.30;1715.20
56123;DHT22;42426;46.104;19.656;2024-03-23T17:51:02;461.30;1715.20
56123;DHT22;42426;46.104;19.656;2024-03-23T17:53:30;461.30;1740.80
56123;DHT22;42426;46.104;19.656;2024-03-23T17:55:55;461.30;1740.80
56123;DHT22;42426;46.104;19.656;2024-03-23T17:58:21;461.20;1689.60
56123;DHT22;42426;46.104;19.656;2024-03-23T18:00:47;461.20;1715.20
56123;DHT22;42426;46.104;19.656;2024-03-23T18:03:13;461.20;1664.00
56123;DHT22;42426;46.104;19.656;2024-03-23T18:05:38;461.20;1689.60
56123;DHT22;42426;46.104;19.656;2024-03-23T18:08:06;461.20;1689.60
56123;DHT22;42426;46.104;19.656;2024-03-23T18:10:33;461.20;1689.60
56123;DHT22;42426;46.104;19.656;2024-03-23T18:12:59;461.10;1689.60
56123;DHT22;42426;46.104;19.656;2024-03-23T18:15:25;461.10;1664.00
56123;DHT22;42426;46.104;19.656;2024-03-23T18:17:51;461.10;1715.20
56123;DHT22;42426;46.104;19.656;2024-03-23T18:20:17;461.10;1740.80
56123;DHT22;42426;46.104;19.656;2024-03-23T18:22:44;461.00;1715.20
56123;DHT22;42426;46.104;19.656;2024-03-23T18:25:10;460.90;1715.20
56123;DHT22;42426;46.104;19.656;2024-03-23T18:27:36;460.90;1715.20
56123;DHT22;42426;46.104;19.656;2024-03-23T18:30:02;460.80;1740.80
56123;DHT22;42426;46.104;19.656;2024-03-23T18:32:28;460.80;1715.20
56123;DHT22;42426;46.104;19.656;2024-03-23T18:34:53;460.80;1740.80
56123;DHT22;42426;46.104;19.656;2024-03-23T18:37:20;460.80;1715.20
56123;DHT22;42426;46.104;19.656;2024-03-23T18:39:46;460.80;1740.80
56123;DHT22;42426;46.104;19.656;2024-03-23T18:42:12;460.80;1715.20
56123;DHT22;42426;46.104;19.656;2024-03-23T18:44:38;436.10;1689.60
56123;DHT22;42426;46.104;19.656;2024-03-23T18:47:06;436.10;1689.60
56123;DHT22;42426;46.104;19.656;2024-03-23T18:49:31;436.10;1664.00
56123;DHT22;42426;46.104;19.656;2024-03-23T18:51:57;436.10;1664.00
56123;DHT22;42426;46.104;19.656;2024-03-23T18:54:23;436.10;1689.60
56123;DHT22;42426;46.104;19.656;2024-03-23T18:56:50;436.00;1715.20
56123;DHT22;42426;46.104;19.656;2024-03-23T18:59:18;435.90;1715.20
56123;DHT22;42426;46.104;19.656;2024-03-23T19:01:44;435.90;1715.20
56123;DHT22;42426;46.104;19.656;2024-03-23T19:04:09;435.80;1715.20
56123;DHT22;42426;46.104;19.656;2024-03-23T19:06:35;435.80;1715.20
56123;DHT22;42426;46.104;19.656;2024-03-23T19:09:02;435.80;1740.80
56123;DHT22;42426;46.104;19.656;2024-03-23T19:11:28;435.70;1715.20
56123;DHT22;42426;46.104;19.656;2024-03-23T19:13:54;435.70;1715.20
56123;DHT22;42426;46.104;19.656;2024-03-23T19:16:20;435.70;1715.20
56123;DHT22;42426;46.104;19.656;2024-03-23T19:18:46;435.70;1715.20
56123;DHT22;42426;46.104;19.656;2024-03-23T19:21:12;435.60;1715.20
56123;DHT22;42426;46.104;19.656;2024-03-23T19:23:38;435.60;1715.20
56123;DHT22;42426;46.104;19.656;2024-03-23T19:26:04;435.60;1715.20